createdAt,value
2018-08-31T00:00:59.506Z,10.78
2018-08-31T00:05:45.785Z,11.00
2018-08-31T00:10:31.754Z,10.15
2018-08-31T00:13:00.417Z,9.70
2018-08-31T00:15:30.485Z,9.75
2018-08-31T00:17:58.967Z,9.40
2018-08-31T00:20:27.434Z,10.08
2018-08-31T00:22:55.848Z,9.78
2018-08-31T00:26:03.789Z,9.78
2018-08-31T00:30:47.028Z,8.88
2018-08-31T00:33:24.414Z,8.53
2018-08-31T00:36:11.074Z,8.95
2018-08-31T00:38:54.200Z,8.90
2018-08-31T00:41:35.935Z,8.97
2018-08-31T00:46:22.932Z,9.50
2018-08-31T00:48:52.794Z,10.17
2018-08-31T00:51:21.486Z,9.25
2018-08-31T00:53:50.018Z,9.10
2018-08-31T00:56:18.471Z,8.50
2018-08-31T00:58:47.238Z,9.03
2018-08-31T01:01:17.209Z,8.15
2018-08-31T01:03:45.789Z,8.40
2018-08-31T01:06:14.335Z,8.50
2018-08-31T01:08:42.858Z,8.00
2018-08-31T01:11:11.556Z,8.58
2018-08-31T01:13:42.041Z,7.90
2018-08-31T01:16:10.542Z,8.60
2018-08-31T01:18:40.114Z,8.40
2018-08-31T01:21:08.846Z,9.23
2018-08-31T01:23:37.263Z,10.15
2018-08-31T01:26:05.916Z,8.70
2018-08-31T01:28:34.344Z,9.08
2018-08-31T01:31:02.889Z,10.15
2018-08-31T01:33:31.689Z,9.30
2018-08-31T01:36:00.390Z,9.83
2018-08-31T01:38:29.718Z,9.67
2018-08-31T01:40:58.221Z,9.23
2018-08-31T01:43:26.670Z,9.70
2018-08-31T01:45:55.945Z,8.80
2018-08-31T01:48:28.552Z,8.50
2018-08-31T01:51:02.155Z,8.68
2018-08-31T01:53:31.225Z,9.68
2018-08-31T01:55:59.684Z,10.00
2018-08-31T01:58:28.128Z,9.87
2018-08-31T02:00:56.700Z,9.43
2018-08-31T02:03:25.161Z,9.33
2018-08-31T02:05:53.856Z,9.57
2018-08-31T02:08:22.263Z,9.95
2018-08-31T02:10:52.210Z,8.78
2018-08-31T02:13:20.996Z,9.48
2018-08-31T02:15:49.469Z,8.75
2018-08-31T02:18:18.185Z,8.58
2018-08-31T02:20:46.679Z,9.70
2018-08-31T02:23:15.164Z,8.73
2018-08-31T02:25:43.721Z,8.67
2018-08-31T02:28:12.105Z,8.73
2018-08-31T02:30:40.572Z,9.63
2018-08-31T02:33:09.002Z,8.50
2018-08-31T02:35:37.437Z,8.70
2018-08-31T02:38:06.050Z,8.18
2018-08-31T02:40:35.947Z,8.43
2018-08-31T02:43:04.341Z,8.75
2018-08-31T02:45:32.879Z,8.18
2018-08-31T02:48:02.719Z,8.53
2018-08-31T02:50:31.144Z,8.13
2018-08-31T02:52:59.569Z,8.90
2018-08-31T02:55:28.041Z,10.10
2018-08-31T02:57:56.541Z,10.00
2018-08-31T03:00:25.096Z,10.32
2018-08-31T03:02:53.499Z,9.53
2018-08-31T03:05:22.316Z,10.40
2018-08-31T03:07:50.980Z,9.63
2018-08-31T03:10:19.511Z,9.87
2018-08-31T03:12:48.287Z,9.40
2018-08-31T03:15:17.553Z,10.13
2018-08-31T03:17:46.040Z,9.73
2018-08-31T03:20:14.584Z,9.40
2018-08-31T03:22:43.304Z,10.10
2018-08-31T03:25:11.811Z,10.03
2018-08-31T03:27:40.398Z,9.57
2018-08-31T03:30:09.685Z,10.43
2018-08-31T03:32:38.261Z,10.00
2018-08-31T03:35:06.820Z,10.03
2018-08-31T03:37:35.298Z,10.20
2018-08-31T03:40:04.552Z,10.80
2018-08-31T03:42:45.973Z,11.03
2018-08-31T03:45:14.439Z,11.13
2018-08-31T03:47:44.504Z,13.67
2018-08-31T03:50:13.235Z,16.30
2018-08-31T03:52:42.808Z,14.80
2018-08-31T03:55:12.425Z,16.62
2018-08-31T03:57:42.448Z,18.20
2018-08-31T04:00:11.563Z,18.30
2018-08-31T04:02:43.244Z,16.30
2018-08-31T04:05:12.949Z,16.70
2018-08-31T04:07:41.559Z,16.97
2018-08-31T04:10:09.988Z,16.70
2018-08-31T04:12:43.998Z,9.78
2018-08-31T04:15:12.518Z,7.05
2018-08-31T04:17:40.940Z,10.45
2018-08-31T04:20:09.837Z,14.90
2018-08-31T04:22:38.260Z,15.55
2018-08-31T04:25:06.724Z,16.62
2018-08-31T04:27:35.228Z,16.82
2018-08-31T04:30:03.675Z,17.45
2018-08-31T04:32:33.541Z,14.58
2018-08-31T04:35:01.973Z,13.98
2018-08-31T04:37:31.181Z,16.77
2018-08-31T04:39:59.593Z,17.02
2018-08-31T04:42:40.541Z,15.25
2018-08-31T04:45:09.134Z,17.10
2018-08-31T04:47:37.536Z,18.30
2018-08-31T04:50:06.216Z,17.25
2018-08-31T04:52:47.767Z,15.53
2018-08-31T04:55:16.734Z,16.67
2018-08-31T04:57:45.354Z,15.68
2018-08-31T05:00:13.896Z,16.90
2018-08-31T05:02:42.412Z,17.70
2018-08-31T05:05:10.912Z,16.52
2018-08-31T05:07:39.421Z,16.40
2018-08-31T05:10:07.912Z,16.87
2018-08-31T05:12:36.495Z,17.60
2018-08-31T05:15:05.141Z,16.90
2018-08-31T05:17:33.564Z,17.73
2018-08-31T05:20:02.317Z,16.75
2018-08-31T05:22:35.010Z,17.95
2018-08-31T05:25:03.608Z,16.45
2018-08-31T05:27:32.154Z,17.65
2018-08-31T05:30:02.204Z,18.73
2018-08-31T05:32:31.747Z,17.80
2018-08-31T05:35:00.194Z,17.92
2018-08-31T05:37:29.227Z,17.90
2018-08-31T05:39:57.896Z,17.57
2018-08-31T05:42:26.375Z,18.55
2018-08-31T05:44:54.849Z,18.70
2018-08-31T05:47:23.326Z,17.87
2018-08-31T05:49:52.433Z,17.80
2018-08-31T05:52:21.397Z,17.05
2018-08-31T05:54:49.857Z,18.73
2018-08-31T05:57:18.317Z,17.20
2018-08-31T05:59:46.780Z,16.80
2018-08-31T06:02:15.887Z,17.70
2018-08-31T06:04:44.372Z,18.20
2018-08-31T06:07:12.871Z,17.27
2018-08-31T06:09:41.318Z,17.60
2018-08-31T06:12:10.597Z,16.17
2018-08-31T06:14:39.057Z,18.02
2018-08-31T06:17:07.839Z,17.05
2018-08-31T06:19:36.865Z,18.50
2018-08-31T06:22:05.450Z,17.55
2018-08-31T06:24:34.339Z,17.57
2018-08-31T06:27:03.399Z,19.02
2018-08-31T06:29:35.026Z,18.37
2018-08-31T06:32:03.548Z,18.27
2018-08-31T06:34:32.013Z,18.37
2018-08-31T06:37:00.490Z,18.23
2018-08-31T06:39:28.956Z,17.57
2018-08-31T06:41:57.735Z,19.15
2018-08-31T06:44:26.305Z,18.48
2018-08-31T06:46:55.509Z,18.25
2018-08-31T06:49:23.952Z,18.23
2018-08-31T06:51:53.264Z,17.98
2018-08-31T06:54:23.921Z,16.67
2018-08-31T06:56:54.401Z,17.75
2018-08-31T06:59:22.844Z,18.23
2018-08-31T07:01:51.328Z,17.27
2018-08-31T07:04:20.456Z,16.75
2018-08-31T07:06:48.906Z,17.00
2018-08-31T07:09:17.390Z,16.60
2018-08-31T07:11:45.849Z,16.95
2018-08-31T07:14:15.275Z,17.30
2018-08-31T07:16:44.815Z,16.40
2018-08-31T07:22:01.116Z,18.73
2018-08-31T07:24:30.864Z,17.95
2018-08-31T07:26:59.833Z,18.73
2018-08-31T07:29:28.315Z,18.23
2018-08-31T07:31:56.757Z,18.05
2018-08-31T07:34:25.193Z,18.23
2018-08-31T07:36:54.268Z,18.90
2018-08-31T07:39:23.298Z,18.98
2018-08-31T07:41:51.740Z,18.48
2018-08-31T07:44:20.636Z,17.75
2018-08-31T07:46:49.072Z,17.00
2018-08-31T07:49:17.493Z,18.57
2018-08-31T07:51:45.986Z,16.82
2018-08-31T07:54:14.392Z,16.85
2018-08-31T07:56:42.833Z,16.73
2018-08-31T07:59:11.536Z,16.32
2018-08-31T08:01:39.984Z,17.80
2018-08-31T08:04:08.672Z,18.15
2018-08-31T08:06:37.169Z,16.77
2018-08-31T08:09:07.540Z,17.45
2018-08-31T08:11:36.042Z,18.37
2018-08-31T08:14:06.358Z,16.00
2018-08-31T08:16:34.829Z,16.23
2018-08-31T08:19:03.669Z,15.20
2018-08-31T08:21:32.144Z,17.23
2018-08-31T08:24:00.888Z,16.25
2018-08-31T08:26:29.361Z,17.45
2018-08-31T08:28:57.808Z,17.40
2018-08-31T08:31:27.365Z,17.70
2018-08-31T08:33:55.822Z,16.97
2018-08-31T08:36:24.336Z,16.42
2018-08-31T08:38:53.034Z,18.23
2018-08-31T08:41:22.829Z,17.98
2018-08-31T08:43:51.549Z,18.95
2018-08-31T08:46:20.041Z,18.95
2018-08-31T08:48:48.699Z,19.00
2018-08-31T08:51:17.810Z,18.23
2018-08-31T08:53:46.322Z,17.70
2018-08-31T08:56:14.845Z,17.50
2018-08-31T08:58:44.972Z,18.98
2018-08-31T09:01:13.425Z,19.10
2018-08-31T09:03:41.889Z,20.25
2018-08-31T09:06:10.387Z,18.92
2018-08-31T09:08:38.978Z,19.32
2018-08-31T09:11:07.703Z,18.50
2018-08-31T09:13:37.022Z,18.62
2018-08-31T09:16:05.612Z,18.73
2018-08-31T09:18:34.272Z,17.67
2018-08-31T09:21:03.043Z,18.92
2018-08-31T09:23:33.311Z,19.50
2018-08-31T09:26:04.398Z,19.55
2018-08-31T09:28:34.248Z,19.12
2018-08-31T09:31:07.992Z,19.23
2018-08-31T09:33:36.508Z,18.50
2018-08-31T09:36:04.970Z,17.90
2018-08-31T09:38:33.497Z,18.82
2018-08-31T09:41:01.992Z,18.17
2018-08-31T09:43:30.562Z,18.65
2018-08-31T09:45:59.366Z,18.60
2018-08-31T09:48:27.956Z,19.40
2018-08-31T09:50:56.932Z,18.87
2018-08-31T09:53:27.689Z,18.23
2018-08-31T09:55:56.338Z,19.17
2018-08-31T09:58:25.169Z,18.98
2018-08-31T10:00:59.824Z,18.52
2018-08-31T10:03:28.369Z,18.30
2018-08-31T10:05:57.172Z,19.02
2018-08-31T10:08:27.812Z,19.10
2018-08-31T10:10:56.442Z,19.15
2018-08-31T10:13:25.721Z,18.73
2018-08-31T10:15:54.262Z,19.20
2018-08-31T10:18:22.848Z,19.12
2018-08-31T10:20:51.484Z,19.05
2018-08-31T10:23:19.996Z,19.27
2018-08-31T10:25:55.506Z,18.37
2018-08-31T10:28:24.132Z,18.85
2018-08-31T10:30:52.730Z,19.30
2018-08-31T10:33:21.210Z,18.30
2018-08-31T10:35:49.752Z,18.80
2018-08-31T10:38:18.609Z,19.48
2018-08-31T10:40:49.558Z,20.57
2018-08-31T10:43:18.060Z,19.90
2018-08-31T10:45:46.575Z,18.85
2018-08-31T10:48:15.257Z,18.77
2018-08-31T10:50:43.730Z,19.45
2018-08-31T10:53:12.297Z,19.95
2018-08-31T10:55:40.864Z,19.65
2018-08-31T10:58:09.813Z,20.80
2018-08-31T11:00:38.352Z,19.10
2018-08-31T11:03:07.233Z,17.75
2018-08-31T11:05:35.718Z,17.40
2018-08-31T11:08:04.318Z,17.42
2018-08-31T11:10:33.198Z,17.40
2018-08-31T11:13:01.781Z,17.32
2018-08-31T11:15:30.252Z,16.27
2018-08-31T11:17:58.739Z,15.75
2018-08-31T11:20:27.321Z,14.07
2018-08-31T11:22:55.889Z,13.80
2018-08-31T11:25:24.837Z,14.03
2018-08-31T11:27:53.990Z,12.73
2018-08-31T11:30:22.545Z,14.77
2018-08-31T11:32:51.188Z,13.17
2018-08-31T11:35:19.969Z,12.43
2018-08-31T11:37:48.463Z,13.50
2018-08-31T11:40:16.928Z,12.67
2018-08-31T11:42:45.925Z,13.10
2018-08-31T11:45:14.456Z,12.30
2018-08-31T11:47:42.953Z,11.97
2018-08-31T11:50:12.184Z,10.37
2018-08-31T11:52:40.860Z,10.20
2018-08-31T11:55:09.416Z,11.40
2018-08-31T11:57:38.651Z,12.10
2018-08-31T12:00:07.225Z,12.53
2018-08-31T12:02:35.757Z,12.00
2018-08-31T12:05:04.296Z,12.57
2018-08-31T12:07:33.280Z,11.50
2018-08-31T12:10:02.197Z,11.30
2018-08-31T12:12:31.377Z,9.60
2018-08-31T12:14:59.891Z,9.03
2018-08-31T12:17:28.676Z,9.57
2018-08-31T12:19:57.232Z,9.33
2018-08-31T12:22:26.080Z,8.37
2018-08-31T12:24:54.528Z,8.20
2018-08-31T12:27:23.141Z,8.80
2018-08-31T12:29:51.773Z,8.80
2018-08-31T12:32:20.297Z,7.37
2018-08-31T12:34:50.500Z,7.20
2018-08-31T12:37:20.354Z,6.60
2018-08-31T12:39:52.108Z,7.23
2018-08-31T12:42:20.664Z,8.37
2018-08-31T12:44:51.932Z,7.57
2018-08-31T12:47:20.485Z,8.60
2018-08-31T12:49:49.049Z,8.17
2018-08-31T12:52:17.920Z,8.60
2018-08-31T12:54:46.772Z,8.07
2018-08-31T12:57:37.146Z,9.43
2018-08-31T13:02:40.503Z,11.97
2018-08-31T13:07:47.105Z,9.80
2018-08-31T13:10:46.845Z,9.83
2018-08-31T13:13:21.894Z,9.13
2018-08-31T13:15:55.036Z,10.03
2018-08-31T13:18:29.806Z,6.67
2018-08-31T13:20:59.113Z,7.30
2018-08-31T13:23:28.855Z,7.03
2018-08-31T13:25:57.805Z,8.97
2018-08-31T13:28:29.464Z,8.03
2018-08-31T13:31:03.338Z,8.20
2018-08-31T13:33:33.679Z,7.77
2018-08-31T13:36:03.561Z,6.13
2018-08-31T13:38:39.021Z,5.10
2018-08-31T13:41:08.369Z,5.77
2018-08-31T13:43:45.449Z,6.40
2018-08-31T13:46:14.019Z,5.47
2018-08-31T13:48:56.044Z,5.33
2018-08-31T13:51:25.786Z,5.60
2018-08-31T13:53:54.959Z,5.77
2018-08-31T13:56:23.493Z,5.50
2018-08-31T13:58:59.425Z,6.17
2018-08-31T14:01:28.113Z,5.77
2018-08-31T14:03:56.629Z,5.30
2018-08-31T14:06:25.545Z,7.47
2018-08-31T14:08:54.081Z,5.50
2018-08-31T14:11:22.594Z,4.93
2018-08-31T14:13:51.434Z,5.10
2018-08-31T14:16:20.621Z,4.77
2018-08-31T14:18:49.212Z,5.63
2018-08-31T14:21:19.344Z,4.07
2018-08-31T14:23:56.590Z,4.17
2018-08-31T14:26:25.809Z,3.90
2018-08-31T14:28:55.404Z,4.83
2018-08-31T14:31:24.539Z,6.17
2018-08-31T14:33:53.020Z,5.83
2018-08-31T14:36:21.515Z,5.33
2018-08-31T14:38:49.993Z,6.20
2018-08-31T14:41:18.613Z,5.10
2018-08-31T14:43:47.174Z,5.30
2018-08-31T14:46:20.071Z,6.27
2018-08-31T14:48:49.155Z,5.83
2018-08-31T14:51:18.271Z,6.30
2018-08-31T14:53:46.778Z,6.13
2018-08-31T14:56:15.335Z,6.77
2018-08-31T14:58:44.326Z,7.10
2018-08-31T15:01:15.235Z,7.23
2018-08-31T15:03:46.062Z,6.63
2018-08-31T15:06:14.831Z,5.77
2018-08-31T15:08:43.297Z,7.80
2018-08-31T15:11:13.089Z,6.67
2018-08-31T15:13:48.510Z,6.43
2018-08-31T15:16:18.578Z,7.87
2018-08-31T15:18:47.931Z,7.00
2018-08-31T15:21:17.956Z,9.53
2018-08-31T15:23:47.942Z,8.97
2018-08-31T15:26:19.534Z,10.00
2018-08-31T15:28:49.548Z,9.60
2018-08-31T15:31:26.615Z,9.33
2018-08-31T15:33:55.212Z,9.83
2018-08-31T15:36:25.240Z,9.23
2018-08-31T15:38:54.854Z,9.17
2018-08-31T15:41:24.525Z,10.03
2018-08-31T15:46:33.823Z,8.70
2018-08-31T15:49:03.555Z,7.03
2018-08-31T15:51:42.552Z,11.73
2018-08-31T15:54:14.053Z,9.63
2018-08-31T15:56:44.830Z,9.20
2018-08-31T15:59:14.943Z,12.83
2018-08-31T16:01:45.538Z,7.50
2018-08-31T16:04:14.695Z,7.93
2018-08-31T16:06:45.682Z,8.00
2018-08-31T16:09:15.940Z,8.10
2018-08-31T16:11:50.654Z,7.90
2018-08-31T16:14:19.959Z,9.67
2018-08-31T16:16:50.595Z,10.00
2018-08-31T16:19:21.260Z,11.93
2018-08-31T16:21:54.211Z,12.57
2018-08-31T16:24:24.034Z,12.83
2018-08-31T16:26:53.787Z,10.00
2018-08-31T16:29:23.250Z,11.93
2018-08-31T16:31:52.809Z,10.23
2018-08-31T16:34:22.776Z,10.77
2018-08-31T16:36:53.931Z,10.47
2018-08-31T16:39:23.240Z,10.43
2018-08-31T16:41:58.268Z,7.80
2018-08-31T16:44:27.886Z,8.27
2018-08-31T16:46:58.461Z,10.50
2018-08-31T16:49:27.637Z,11.33
2018-08-31T16:51:58.014Z,11.73
2018-08-31T16:54:27.516Z,9.47
2018-08-31T16:56:57.946Z,9.63
2018-08-31T16:59:27.657Z,10.50
2018-08-31T17:01:59.292Z,9.37
2018-08-31T17:04:29.097Z,10.67
2018-08-31T17:07:03.006Z,6.00
2018-08-31T17:09:38.422Z,8.30
2018-08-31T17:12:08.142Z,8.07
2018-08-31T17:14:41.145Z,8.37
2018-08-31T17:17:17.530Z,8.57
2018-08-31T17:19:46.499Z,7.90
2018-08-31T17:22:16.352Z,9.40
2018-08-31T17:24:46.511Z,8.13
2018-08-31T17:27:22.010Z,8.83
2018-08-31T17:29:51.382Z,9.17
2018-08-31T17:32:26.620Z,9.13
2018-08-31T17:35:01.165Z,9.50
2018-08-31T17:37:32.172Z,10.17
2018-08-31T17:40:02.530Z,10.23
2018-08-31T17:42:36.082Z,10.50
2018-08-31T17:45:05.875Z,10.07
2018-08-31T17:47:35.951Z,10.73
2018-08-31T17:50:06.995Z,10.13
2018-08-31T17:52:36.978Z,12.30
2018-08-31T17:55:07.016Z,11.27
2018-08-31T17:57:37.429Z,10.87
2018-08-31T18:00:08.539Z,8.37
2018-08-31T18:02:39.178Z,12.67
2018-08-31T18:05:09.579Z,11.33
2018-08-31T18:07:39.746Z,12.37
2018-08-31T18:10:10.281Z,11.33
2018-08-31T18:12:40.252Z,12.03
2018-08-31T18:15:10.126Z,13.10
2018-08-31T18:17:40.078Z,13.67
2018-08-31T18:20:10.169Z,15.40
2018-08-31T18:22:39.481Z,14.63
2018-08-31T18:25:10.689Z,15.23
2018-08-31T18:27:40.025Z,13.93
2018-08-31T18:30:09.382Z,13.30
2018-08-31T18:32:40.896Z,14.20
2018-08-31T18:35:09.222Z,14.17
2018-08-31T18:37:38.894Z,15.50
2018-08-31T18:40:09.652Z,16.43
2018-08-31T18:42:39.637Z,15.80
2018-08-31T18:45:09.393Z,14.23
2018-08-31T18:47:40.577Z,14.27
2018-08-31T18:50:10.956Z,15.97
2018-08-31T18:52:40.900Z,14.03
2018-08-31T18:55:11.887Z,14.60
2018-08-31T18:57:41.591Z,14.90
2018-08-31T19:00:11.687Z,15.33
2018-08-31T19:02:41.761Z,15.83
2018-08-31T19:05:29.686Z,17.43
2018-08-31T19:08:00.851Z,16.30
2018-08-31T19:10:30.898Z,16.50
2018-08-31T19:13:00.713Z,15.80
2018-08-31T19:15:33.472Z,16.60
2018-08-31T19:18:02.785Z,16.83
2018-08-31T19:20:33.747Z,17.63
2018-08-31T19:23:03.653Z,18.03
2018-08-31T19:25:34.740Z,17.00
2018-08-31T19:28:04.847Z,17.40
2018-08-31T19:30:36.760Z,18.63
2018-08-31T19:33:07.618Z,17.93
2018-08-31T19:35:37.497Z,18.87
2018-08-31T19:38:08.239Z,19.13
2018-08-31T19:40:38.567Z,19.70
2018-08-31T19:43:09.661Z,19.97
2018-08-31T19:45:40.228Z,21.40
2018-08-31T19:48:09.814Z,19.90
2018-08-31T19:50:39.797Z,21.53
2018-08-31T19:53:09.672Z,21.00
2018-08-31T19:55:41.076Z,19.17
2018-08-31T19:58:10.750Z,20.30
2018-08-31T20:00:41.445Z,20.27
2018-08-31T20:03:11.756Z,20.30
2018-08-31T20:05:43.548Z,19.10
2018-08-31T20:08:14.190Z,19.70
2018-08-31T20:10:44.989Z,20.23
2018-08-31T20:13:16.563Z,19.27
2018-08-31T20:15:47.016Z,21.33
2018-08-31T20:18:19.279Z,20.70
2018-08-31T20:20:49.459Z,20.90
2018-08-31T20:23:20.637Z,21.40
2018-08-31T20:25:50.036Z,19.30
2018-08-31T20:28:20.448Z,20.93
2018-08-31T20:30:50.716Z,21.83
2018-08-31T20:33:20.393Z,20.80
2018-08-31T20:35:50.821Z,20.77
2018-08-31T20:38:20.826Z,21.43
2018-08-31T20:40:51.542Z,22.20
2018-08-31T20:43:22.083Z,22.30
2018-08-31T20:45:51.841Z,22.97
2018-08-31T20:48:22.223Z,22.93
2018-08-31T20:50:52.171Z,23.17
2018-08-31T20:53:22.387Z,22.43
2018-08-31T20:55:52.768Z,22.37
2018-08-31T20:58:23.585Z,22.17
2018-08-31T21:00:53.620Z,23.63
2018-08-31T21:03:23.954Z,22.57
2018-08-31T21:05:53.886Z,23.13
2018-08-31T21:08:24.332Z,22.17
2018-08-31T21:10:56.664Z,22.87
2018-08-31T21:13:28.305Z,22.17
2018-08-31T21:15:58.792Z,20.93
2018-08-31T21:18:29.701Z,22.80
2018-08-31T21:21:00.402Z,21.53
2018-08-31T21:23:30.137Z,21.90
2018-08-31T21:26:00.600Z,22.33
2018-08-31T21:28:30.584Z,26.73
2018-08-31T21:31:00.930Z,24.20
2018-08-31T21:33:30.811Z,22.37
2018-08-31T21:36:00.717Z,22.53
2018-08-31T21:38:31.137Z,20.63
2018-08-31T21:41:01.847Z,21.23
2018-08-31T21:43:31.417Z,21.37
2018-08-31T21:46:01.708Z,21.57
2018-08-31T21:48:31.833Z,21.60
2018-08-31T21:51:02.757Z,22.80
2018-08-31T21:53:32.935Z,18.83
2018-08-31T21:56:02.599Z,19.50
2018-08-31T21:58:32.004Z,20.90
2018-08-31T22:01:07.265Z,19.17
2018-08-31T22:03:36.976Z,18.43
2018-08-31T22:06:07.613Z,16.23
2018-08-31T22:08:37.847Z,17.87
2018-08-31T22:11:08.188Z,20.17
2018-08-31T22:13:37.625Z,19.33
2018-08-31T22:16:07.595Z,20.93
2018-08-31T22:18:38.626Z,21.07
2018-08-31T22:21:09.648Z,20.17
2018-08-31T22:23:39.666Z,21.20
2018-08-31T22:26:09.769Z,20.17
2018-08-31T22:28:39.743Z,20.97
2018-08-31T22:31:09.350Z,21.27
2018-08-31T22:33:39.506Z,21.73
2018-08-31T22:36:10.183Z,23.37
2018-08-31T22:38:39.960Z,21.87
2018-08-31T22:41:09.562Z,20.97
2018-08-31T22:43:44.936Z,20.57
2018-08-31T22:46:14.234Z,21.17
2018-08-31T22:48:44.464Z,21.33
2018-08-31T22:51:14.875Z,20.73
2018-08-31T22:53:44.302Z,22.40
2018-08-31T22:56:14.182Z,23.60
2018-08-31T22:58:44.078Z,25.03
2018-08-31T23:01:13.830Z,26.20
2018-08-31T23:03:43.876Z,21.97
2018-08-31T23:06:14.351Z,21.93
2018-08-31T23:08:43.822Z,21.93
2018-08-31T23:11:14.428Z,22.40
2018-08-31T23:13:45.246Z,22.97
2018-08-31T23:16:14.991Z,22.63
2018-08-31T23:18:44.754Z,20.87
2018-08-31T23:21:14.902Z,20.87
2018-08-31T23:23:47.165Z,19.93
2018-08-31T23:26:16.659Z,22.50
2018-08-31T23:28:46.572Z,23.03
2018-08-31T23:31:16.621Z,22.37
2018-08-31T23:33:46.486Z,23.00
2018-08-31T23:36:16.200Z,22.27
2018-08-31T23:38:45.972Z,21.07
2018-08-31T23:41:16.394Z,21.23
2018-08-31T23:43:46.656Z,23.77
2018-08-31T23:46:16.875Z,24.60
2018-08-31T23:48:46.287Z,23.47
2018-08-31T23:51:16.286Z,22.90
2018-08-31T23:53:46.077Z,22.40
2018-08-31T23:56:15.805Z,21.97
2018-08-31T23:58:46.198Z,24.77
